Annandale, New Jersey
Current Conditions -  °F | °C
As of 3:27 PM on Wednesday 26 Nov 2014 (Local Time) from KSMQ Reporting Station
Light Snow Light Snow  
Wind Chill: -2°   Ceiling: 1400
Heat Index:   Visibility: 2mi
Dew Point:   Wind: 6mph
Humidity: 92%   Direction: 340°NNW
Pressure: 29.85"   Gusts: NA
Location:  40.65°N, 74.89°W
Report Text: KSMQ 262027Z AUTO 34005KT 2SM -SN BR OVC014 01/00 A2985 RMK AO2 P0003 T00110000
Loading
Personal Weather Stations






























Interactive Weather Map New forecast layout! Learn more

10-Day Weather Forecast

Advertisements
Track Severe Weather on mobile